Time;durP1;ratioP1;P1;durP2;ratioP2;P2;SDS_P1;SDS_P2;PMS_P1;PMS_P2;Temp;Humidity;BMP_temperature;BMP_pressure;BME280_temperature;BME280_humidity;BME280_pressure;Samples;Min_cycle;Max_cycle;Signal;HPM_P1;HPM_P2
2022/03/08 00:01:34;;;;;;;16.35;12.93;;;;;;;4.28;52.85;102506.66;5176511;28;20426;-49
2022/03/08 00:04:07;;;;;;;18.13;13.37;;;;;;;4.27;52.87;102504.94;5171696;28;20476;-51
2022/03/08 00:06:39;;;;;;;18.70;13.43;;;;;;;4.24;52.75;102499.84;5175856;28;20417;-51
2022/03/08 00:09:12;;;;;;;21.92;13.65;;;;;;;4.31;52.74;102509.13;5169819;28;20715;-51
2022/03/08 00:11:45;;;;;;;14.85;11.35;;;;;;;4.31;52.80;102511.75;5169581;28;20415;-47
2022/03/08 00:14:18;;;;;;;14.95;12.20;;;;;;;4.30;52.86;102507.41;5169893;28;20841;-54
2022/03/08 00:16:50;;;;;;;17.30;12.57;;;;;;;4.30;52.94;102507.41;5168504;28;20417;-52
2022/03/08 00:19:23;;;;;;;16.08;12.80;;;;;;;4.21;53.03;102485.13;5170725;28;20430;-51
2022/03/08 00:21:55;;;;;;;16.90;12.75;;;;;;;4.29;52.73;102497.88;5172747;28;20779;-48
2022/03/08 00:24:28;;;;;;;18.50;12.75;;;;;;;4.28;52.99;102494.41;5171183;28;20454;-56
2022/03/08 00:27:01;;;;;;;16.83;12.75;;;;;;;4.31;52.90;102493.44;5167101;28;20429;-52
2022/03/08 00:29:34;;;;;;;16.77;12.80;;;;;;;4.33;52.73;102496.81;5173110;28;23994;-52
2022/03/08 00:32:08;;;;;;;15.85;12.25;;;;;;;4.30;52.55;102489.94;5166203;28;20430;-51
2022/03/08 00:34:40;;;;;;;17.15;12.95;;;;;;;4.24;52.82;102471.06;5169339;28;20766;-58
2022/03/08 00:37:13;;;;;;;16.30;12.40;;;;;;;4.28;52.59;102485.72;5169465;28;20798;-58
2022/03/08 00:39:46;;;;;;;15.98;12.05;;;;;;;4.24;52.71;102485.00;5163629;28;20509;-51
2022/03/08 00:42:20;;;;;;;16.13;12.88;;;;;;;4.22;52.70;102479.00;5170369;28;20851;-51
2022/03/08 00:44:53;;;;;;;18.10;12.77;;;;;;;4.23;52.95;102472.00;5161789;28;20782;-55
2022/03/08 00:47:26;;;;;;;18.15;12.52;;;;;;;4.22;52.84;102468.53;5168582;28;20412;-50
2022/03/08 00:49:58;;;;;;;17.03;11.77;;;;;;;4.14;53.00;102457.56;5168799;28;20549;-48
2022/03/08 00:52:31;;;;;;;16.33;13.02;;;;;;;4.21;52.70;102469.44;5168454;28;20507;-49
2022/03/08 00:55:06;;;;;;;15.48;12.20;;;;;;;4.26;52.82;102477.09;5167579;28;20419;-52
2022/03/08 00:57:40;;;;;;;25.33;13.65;;;;;;;4.25;52.71;102464.94;5172390;28;20417;-53
2022/03/08 01:00:17;;;;;;;16.17;11.65;;;;;;;4.01;52.86;102436.34;5172966;28;20444;-51
2022/03/08 01:02:49;;;;;;;15.88;11.60;;;;;;;4.26;52.96;102466.63;5148494;28;20495;-52
2022/03/08 01:05:22;;;;;;;16.55;12.40;;;;;;;4.26;52.72;102471.88;5176311;28;20412;-53
2022/03/08 01:07:55;;;;;;;16.45;11.88;;;;;;;4.25;52.75;102460.56;5176362;28;20514;-47
2022/03/08 01:10:30;;;;;;;13.20;11.30;;;;;;;4.23;52.61;102466.78;5169289;28;20420;-54
2022/03/08 01:13:05;;;;;;;14.50;11.13;;;;;;;4.24;52.72;102468.47;5172562;28;20521;-55
2022/03/08 01:15:37;;;;;;;13.50;11.95;;;;;;;4.21;52.68;102452.91;5165440;28;20805;-55
2022/03/08 01:18:09;;;;;;;15.40;10.88;;;;;;;4.26;52.74;102467.47;5169771;28;20437;-50
2022/03/08 01:20:42;;;;;;;13.35;10.77;;;;;;;4.28;52.73;102460.41;5174427;28;20496;-52
2022/03/08 01:23:15;;;;;;;14.25;10.75;;;;;;;4.28;52.71;102459.56;5171346;28;20439;-49
2022/03/08 01:25:47;;;;;;;13.75;10.45;;;;;;;4.28;52.60;102455.19;5170334;28;20852;-50
2022/03/08 01:28:21;;;;;;;13.48;9.40;;;;;;;4.24;52.38;102443.16;5179848;28;21258;-48
2022/03/08 01:30:53;;;;;;;14.07;11.00;;;;;;;4.21;52.51;102434.59;5174422;28;20405;-50
2022/03/08 01:33:26;;;;;;;11.77;9.83;;;;;;;4.28;52.57;102443.88;5174043;28;20436;-50
2022/03/08 01:35:58;;;;;;;12.40;9.52;;;;;;;4.28;52.26;102438.66;5182388;28;20792;-56
2022/03/08 01:38:31;;;;;;;12.63;9.50;;;;;;;4.28;52.28;102436.03;5172421;28;20423;-51
2022/03/08 01:41:04;;;;;;;14.88;9.35;;;;;;;4.30;52.44;102455.09;5170930;28;20934;-52
2022/03/08 01:43:37;;;;;;;10.77;9.55;;;;;;;4.28;52.02;102430.81;5161403;28;20467;-54
2022/03/08 01:46:10;;;;;;;11.52;9.63;;;;;;;4.26;52.16;102427.41;5173270;28;20506;-52
2022/03/08 01:48:44;;;;;;;16.20;10.77;;;;;;;4.27;51.88;102426.47;5172397;28;21003;-51
2022/03/08 01:51:17;;;;;;;12.70;9.20;;;;;;;4.15;52.12;102405.22;5169778;28;20885;-56
2022/03/08 01:53:50;;;;;;;12.10;9.55;;;;;;;4.26;51.79;102427.41;5171282;28;20412;-51
2022/03/08 01:56:22;;;;;;;13.98;9.27;;;;;;;4.25;51.65;102428.34;5171608;28;20433;-54
2022/03/08 01:58:56;;;;;;;13.03;9.50;;;;;;;4.22;51.88;102418.00;5177241;28;20993;-49
2022/03/08 02:01:29;;;;;;;12.10;9.63;;;;;;;4.22;51.79;102412.78;5154291;28;20529;-51
2022/03/08 02:04:01;;;;;;;15.13;10.45;;;;;;;4.15;51.49;102410.44;5177840;28;20435;-50
2022/03/08 02:06:34;;;;;;;12.38;10.55;;;;;;;4.18;51.65;102422.53;5176491;28;20511;-50
2022/03/08 02:09:06;;;;;;;13.20;9.48;;;;;;;4.09;51.61;102412.50;5173295;28;20486;-48
2022/03/08 02:11:39;;;;;;;10.55;9.13;;;;;;;4.14;51.62;102426.19;5166671;28;20424;-58
2022/03/08 02:14:14;;;;;;;13.05;10.00;;;;;;;4.07;51.48;102411.69;5173081;28;20891;-59
2022/03/08 02:16:47;;;;;;;13.83;9.50;;;;;;;4.11;51.37;102416.72;5169000;28;20763;-52
2022/03/08 02:19:19;;;;;;;15.02;10.60;;;;;;;4.07;51.56;102409.09;5171860;28;20906;-49
2022/03/08 02:21:54;;;;;;;14.10;10.68;;;;;;;4.09;51.56;102418.56;5180942;28;20425;-53
2022/03/08 02:24:26;;;;;;;15.20;10.15;;;;;;;4.07;51.25;102409.94;5171592;28;20432;-49
2022/03/08 02:27:00;;;;;;;12.23;9.43;;;;;;;4.05;51.33;102408.28;5173149;28;20448;-50
2022/03/08 02:29:33;;;;;;;14.80;10.60;;;;;;;3.98;51.45;102399.88;5171256;28;20421;-53
2022/03/08 02:32:06;;;;;;;12.70;10.17;;;;;;;4.03;51.15;102405.78;5170497;28;20426;-52
2022/03/08 02:34:38;;;;;;;12.80;10.05;;;;;;;3.98;51.22;102394.66;5168823;28;20849;-51
2022/03/08 02:37:12;;;;;;;12.10;9.77;;;;;;;4.01;51.22;102391.06;5178151;28;20506;-50
2022/03/08 02:39:45;;;;;;;12.88;10.07;;;;;;;3.99;51.26;102396.34;5159554;28;20503;-48
2022/03/08 02:42:17;;;;;;;14.23;11.13;;;;;;;3.97;51.24;102382.50;5172412;28;20938;-51
2022/03/08 02:44:50;;;;;;;12.30;11.00;;;;;;;3.93;51.17;102375.72;5171831;28;20422;-50
2022/03/08 02:47:22;;;;;;;14.82;10.05;;;;;;;3.94;51.27;102377.44;5173181;28;20514;-51
2022/03/08 02:49:55;;;;;;;13.83;11.17;;;;;;;3.92;51.08;102381.88;5171022;28;20447;-50
2022/03/08 02:52:29;;;;;;;14.50;10.68;;;;;;;3.91;51.12;102374.94;5173796;28;20493;-49
2022/03/08 02:55:01;;;;;;;13.80;10.32;;;;;;;3.89;51.05;102374.16;5170458;28;20984;-48
2022/03/08 02:57:34;;;;;;;12.80;10.90;;;;;;;3.85;51.02;102372.59;5169120;28;20501;-51
2022/03/08 03:00:10;;;;;;;12.57;10.32;;;;;;;3.77;50.94;102364.25;5171471;28;20506;-52
2022/03/08 03:02:42;;;;;;;13.13;10.80;;;;;;;3.81;51.09;102368.41;5173350;28;20962;-49
2022/03/08 03:05:15;;;;;;;13.52;10.82;;;;;;;3.79;50.76;102368.50;5164818;28;20465;-48
2022/03/08 03:07:50;;;;;;;15.45;11.90;;;;;;;3.78;50.68;102361.59;5177482;28;20515;-49
2022/03/08 03:10:24;;;;;;;13.93;11.25;;;;;;;3.73;50.92;102349.63;5169008;28;20588;-51
2022/03/08 03:12:58;;;;;;;13.68;10.48;;;;;;;3.64;50.89;102336.06;5171598;28;20435;-51
2022/03/08 03:15:31;;;;;;;15.80;12.30;;;;;;;3.69;50.79;102352.38;5173864;28;20420;-51
2022/03/08 03:18:10;;;;;;;16.20;11.82;;;;;;;3.67;50.77;102359.44;5172180;28;21188;-49
2022/03/08 03:20:43;;;;;;;15.27;12.10;;;;;;;3.57;50.90;102345.09;5181468;28;20426;-55
2022/03/08 03:23:17;;;;;;;15.55;12.55;;;;;;;3.60;50.76;102354.56;5159444;28;20411;-48
2022/03/08 03:25:49;;;;;;;13.50;11.38;;;;;;;3.58;50.79;102348.53;5168741;28;20724;-53
2022/03/08 03:28:21;;;;;;;13.05;11.05;;;;;;;3.55;50.68;102346.91;5175514;28;20898;-48
2022/03/08 03:30:54;;;;;;;13.50;11.20;;;;;;;3.47;50.91;102354.25;5164252;28;20474;-56
2022/03/08 03:33:26;;;;;;;14.98;11.88;;;;;;;3.47;50.84;102339.41;5173831;28;21032;-49
2022/03/08 03:35:59;;;;;;;12.43;10.80;;;;;;;3.50;50.65;102341.06;5174059;28;20458;-47
2022/03/08 03:38:32;;;;;;;14.43;11.73;;;;;;;3.47;50.72;102342.03;5163667;28;20549;-48
2022/03/08 03:41:05;;;;;;;13.68;10.93;;;;;;;3.47;50.59;102349.88;5169322;28;21263;-53
2022/03/08 03:43:38;;;;;;;14.48;11.63;;;;;;;3.45;50.85;102338.63;5170083;28;20495;-47
2022/03/08 03:46:10;;;;;;;13.65;11.00;;;;;;;3.43;50.75;102350.06;5170584;28;20761;-52
2022/03/08 03:48:43;;;;;;;15.65;11.82;;;;;;;3.42;50.71;102345.75;5171480;28;20434;-51
2022/03/08 03:51:16;;;;;;;13.00;11.20;;;;;;;3.40;50.76;102355.41;5168081;28;20492;-47
2022/03/08 03:53:50;;;;;;;19.63;12.47;;;;;;;3.36;50.80;102346.88;5172381;28;20510;-50
2022/03/08 03:56:22;;;;;;;13.68;11.15;;;;;;;3.35;50.64;102344.34;5170966;28;20413;-48
2022/03/08 03:58:55;;;;;;;14.07;11.60;;;;;;;3.33;50.72;102339.16;5175313;28;20680;-53
2022/03/08 04:01:27;;;;;;;13.75;10.73;;;;;;;3.32;50.75;102336.63;5169794;28;20504;-49
2022/03/08 04:04:00;;;;;;;14.60;10.40;;;;;;;3.30;50.70;102333.22;5170476;28;20436;-49
2022/03/08 04:06:32;;;;;;;14.70;11.30;;;;;;;3.30;50.70;102341.91;5175461;28;20415;-54
2022/03/08 04:09:08;;;;;;;12.77;10.40;;;;;;;3.07;50.51;102311.56;5169695;28;20933;-52
2022/03/08 04:11:40;;;;;;;17.75;10.55;;;;;;;3.27;50.85;102341.19;5168860;28;20957;-53
2022/03/08 04:14:13;;;;;;;14.63;11.55;;;;;;;3.26;51.04;102342.97;5178654;28;20429;-50
2022/03/08 04:16:45;;;;;;;12.55;10.40;;;;;;;3.23;50.87;102338.72;5166866;28;20416;-49
2022/03/08 04:19:18;;;;;;;13.38;9.90;;;;;;;3.22;50.82;102342.25;5174009;28;20422;-50
2022/03/08 04:21:50;;;;;;;14.02;11.95;;;;;;;3.22;50.94;102331.81;5175717;28;20470;-51
2022/03/08 04:24:25;;;;;;;14.65;11.70;;;;;;;3.23;50.92;102327.44;5171766;28;20531;-51
2022/03/08 04:26:58;;;;;;;11.43;10.10;;;;;;;3.24;50.73;102329.94;5173763;28;20423;-51
2022/03/08 04:29:30;;;;;;;12.63;10.25;;;;;;;3.25;50.99;102325.56;5167771;28;20425;-51
2022/03/08 04:32:03;;;;;;;12.02;9.63;;;;;;;3.26;50.87;102323.84;5171015;28;20589;-48
2022/03/08 04:34:36;;;;;;;11.60;9.48;;;;;;;3.06;51.25;102294.19;5170778;28;20428;-49
2022/03/08 04:37:08;;;;;;;14.27;10.18;;;;;;;3.22;50.80;102323.97;5141320;28;20419;-52
2022/03/08 04:39:42;;;;;;;10.93;8.85;;;;;;;3.22;51.08;102323.97;5170279;28;20507;-50
2022/03/08 04:42:15;;;;;;;12.27;9.13;;;;;;;3.15;51.14;102303.41;5170591;28;20547;-48
2022/03/08 04:44:47;;;;;;;12.27;9.10;;;;;;;3.23;50.90;102317.81;5169606;28;20425;-48
2022/03/08 04:47:19;;;;;;;13.38;9.77;;;;;;;3.24;51.01;102318.66;5169093;28;20536;-54
2022/03/08 04:49:52;;;;;;;12.23;9.38;;;;;;;3.18;51.11;102309.34;5173051;28;20477;-53
2022/03/08 04:52:24;;;;;;;11.40;10.00;;;;;;;3.25;51.13;102307.31;5170135;28;20495;-51
2022/03/08 04:54:58;;;;;;;11.32;9.32;;;;;;;3.23;51.36;102312.59;5171838;28;20423;-48
2022/03/08 04:57:31;;;;;;;13.55;9.55;;;;;;;3.26;51.10;102305.56;5176623;28;20401;-48
2022/03/08 05:00:05;;;;;;;11.25;9.55;;;;;;;3.26;50.99;102310.78;5167695;28;20973;-52
2022/03/08 05:02:38;;;;;;;10.13;9.10;;;;;;;3.23;51.35;102302.16;5171353;28;20506;-50
2022/03/08 05:05:11;;;;;;;11.13;9.30;;;;;;;3.27;51.21;102307.25;5177585;28;20411;-49
2022/03/08 05:07:44;;;;;;;10.65;9.43;;;;;;;3.26;51.12;102306.41;5171711;28;20415;-50
2022/03/08 05:10:18;;;;;;;11.35;9.30;;;;;;;3.26;51.38;102310.78;5175235;28;20424;-49
2022/03/08 05:12:50;;;;;;;11.95;9.57;;;;;;;3.28;50.95;102308.94;5176563;28;20902;-54
2022/03/08 05:15:23;;;;;;;14.43;9.80;;;;;;;3.21;50.98;102298.75;5178203;28;20577;-47
2022/03/08 05:17:55;;;;;;;12.13;10.10;;;;;;;3.23;50.95;102301.31;5171128;28;20472;-51
2022/03/08 05:20:27;;;;;;;13.23;9.68;;;;;;;3.22;51.12;102310.91;5178250;28;20496;-55
2022/03/08 05:23:00;;;;;;;17.48;9.43;;;;;;;3.20;50.88;102297.06;5168880;28;20498;-48
2022/03/08 05:25:34;;;;;;;12.75;10.32;;;;;;;3.22;50.90;102308.31;5173673;28;20455;-52
2022/03/08 05:28:06;;;;;;;10.30;8.97;;;;;;;3.03;51.08;102273.44;5176748;28;20439;-48
2022/03/08 05:30:39;;;;;;;10.82;9.18;;;;;;;3.20;51.07;102294.47;5174482;28;20845;-51
2022/03/08 05:33:12;;;;;;;11.37;10.27;;;;;;;3.07;50.85;102269.81;5175589;28;20424;-55
2022/03/08 05:35:44;;;;;;;10.05;8.68;;;;;;;3.11;51.04;102276.59;5174374;28;20814;-49
2022/03/08 05:38:17;;;;;;;16.08;10.75;;;;;;;3.15;51.03;102285.97;5174656;28;20456;-48
2022/03/08 05:40:51;;;;;;;12.20;9.90;;;;;;;3.16;50.97;102285.06;5176079;28;20531;-49
2022/03/08 05:43:23;;;;;;;11.55;9.35;;;;;;;3.12;50.80;102288.72;5167309;28;20424;-51
2022/03/08 05:45:56;;;;;;;11.55;9.30;;;;;;;2.92;50.88;102254.81;5172292;28;20500;-50
2022/03/08 05:48:28;;;;;;;13.52;10.40;;;;;;;2.95;50.80;102254.69;5178601;28;20460;-54
2022/03/08 05:51:01;;;;;;;10.88;8.80;;;;;;;3.13;50.75;102285.22;5172530;28;20432;-52
2022/03/08 05:53:33;;;;;;;12.95;9.20;;;;;;;3.14;51.02;102294.72;5158510;28;20511;-47
2022/03/08 05:56:08;;;;;;;14.20;8.90;;;;;;;3.10;50.97;102290.56;5169618;28;20834;-48
2022/03/08 05:58:40;;;;;;;13.07;9.77;;;;;;;3.13;50.91;102295.66;5175706;28;20788;-51
2022/03/08 06:01:13;;;;;;;12.88;9.88;;;;;;;3.15;51.01;102300.78;5171481;28;20878;-51
2022/03/08 06:03:46;;;;;;;12.25;9.27;;;;;;;3.04;50.63;102290.81;5169014;28;20492;-53
2022/03/08 06:06:18;;;;;;;10.45;9.35;;;;;;;3.10;50.66;102301.00;5171670;28;20449;-50
2022/03/08 06:08:51;;;;;;;10.07;8.27;;;;;;;3.12;50.77;102304.38;5182076;28;20473;-49
2022/03/08 06:11:25;;;;;;;10.13;9.03;;;;;;;3.10;50.55;102306.22;5175999;28;20919;-48
2022/03/08 06:13:57;;;;;;;14.35;9.48;;;;;;;3.10;50.59;102294.94;5173746;28;20460;-50
2022/03/08 06:16:30;;;;;;;11.63;10.10;;;;;;;3.10;50.54;102305.38;5173833;28;20615;-50
2022/03/08 06:19:02;;;;;;;10.10;8.45;;;;;;;3.08;50.62;102302.81;5175719;28;20500;-48
2022/03/08 06:21:34;;;;;;;12.57;9.77;;;;;;;3.07;50.39;102300.28;5173547;28;20504;-49
2022/03/08 06:24:07;;;;;;;12.63;9.13;;;;;;;3.04;50.73;102306.47;5175126;28;20419;-52
2022/03/08 06:26:41;;;;;;;17.00;10.15;;;;;;;2.97;50.67;102299.81;5167753;28;20897;-50
2022/03/08 06:29:14;;;;;;;12.45;9.02;;;;;;;3.00;50.67;102299.66;5149489;28;20518;-47
2022/03/08 06:31:46;;;;;;;13.05;9.50;;;;;;;3.02;50.77;102297.84;5161832;28;20555;-51
2022/03/08 06:34:19;;;;;;;15.18;9.82;;;;;;;3.00;50.54;102302.28;5177410;28;20839;-48
2022/03/08 06:36:52;;;;;;;10.85;8.88;;;;;;;3.00;50.61;102304.91;5159907;28;20409;-51
2022/03/08 06:39:24;;;;;;;12.32;9.27;;;;;;;2.99;50.77;102293.59;5166923;28;20499;-51
2022/03/08 06:41:58;;;;;;;14.05;9.55;;;;;;;3.01;50.83;102290.94;5174113;28;20795;-49
2022/03/08 06:44:31;;;;;;;12.95;10.27;;;;;;;3.04;50.55;102292.59;5172292;28;20525;-53
2022/03/08 06:47:04;;;;;;;11.63;9.43;;;;;;;3.05;50.68;102292.50;5171406;28;20925;-50
2022/03/08 06:49:40;;;;;;;11.27;9.10;;;;;;;3.09;50.72;102298.44;5171338;28;20410;-51
2022/03/08 06:52:13;;;;;;;11.48;9.00;;;;;;;3.12;50.33;102293.09;5174468;28;20544;-48
2022/03/08 06:54:46;;;;;;;12.88;8.95;;;;;;;3.11;50.48;102297.47;5169653;28;20399;-49
2022/03/08 06:57:19;;;;;;;9.48;8.50;;;;;;;3.11;50.61;102291.41;5169510;28;20841;-51
2022/03/08 06:59:52;;;;;;;11.27;9.40;;;;;;;2.75;50.30;102227.66;5170535;28;20437;-49
2022/03/08 07:02:25;;;;;;;11.52;9.00;;;;;;;3.27;50.28;102296.81;5169750;28;20425;-51
2022/03/08 07:04:58;;;;;;;13.73;9.05;;;;;;;3.28;50.31;102295.88;5177508;28;20421;-51
2022/03/08 07:07:30;;;;;;;11.55;8.60;;;;;;;3.26;50.35;102298.56;5177846;28;20431;-46
2022/03/08 07:10:03;;;;;;;10.25;9.20;;;;;;;3.25;50.55;102291.63;5174285;28;20433;-49
2022/03/08 07:12:37;;;;;;;10.52;8.15;;;;;;;3.34;50.34;102293.00;5177583;28;20996;-50
2022/03/08 07:15:11;;;;;;;11.90;8.60;;;;;;;3.30;50.21;102284.47;5178085;28;20651;-48
2022/03/08 07:17:46;;;;;;;10.70;9.35;;;;;;;3.46;50.29;102300.28;5182635;28;20413;-48
2022/03/08 07:20:19;;;;;;;13.15;9.02;;;;;;;3.50;50.15;102301.88;5164355;28;20408;-48
2022/03/08 07:22:51;;;;;;;12.05;8.30;;;;;;;4.06;49.97;102297.59;5172502;28;20516;-51
2022/03/08 07:25:24;;;;;;;12.27;9.57;;;;;;;5.46;48.93;102299.34;5179733;28;20501;-52
2022/03/08 07:27:58;;;;;;;11.82;7.70;;;;;;;6.87;47.62;102283.66;5179794;28;20510;-50
2022/03/08 07:30:31;;;;;;;10.75;7.82;;;;;;;8.06;46.41;102272.84;5176803;28;20455;-48
2022/03/08 07:33:04;;;;;;;12.23;7.85;;;;;;;9.33;45.39;102276.72;5184308;28;20529;-49
2022/03/08 07:35:37;;;;;;;8.48;6.65;;;;;;;10.25;44.51;102285.97;5178384;28;20474;-48
2022/03/08 07:38:09;;;;;;;12.13;6.47;;;;;;;11.03;43.68;102288.94;5179909;28;20809;-53
2022/03/08 07:40:41;;;;;;;6.57;5.68;;;;;;;11.49;43.10;102293.34;5168172;28;20927;-49
2022/03/08 07:43:15;;;;;;;11.65;6.15;;;;;;;11.68;42.62;102283.94;5164358;28;20432;-50
2022/03/08 07:45:48;;;;;;;9.53;6.63;;;;;;;11.99;42.25;102272.63;5171176;28;20486;-47
2022/03/08 07:48:20;;;;;;;9.35;6.28;;;;;;;12.15;42.18;102297.84;5168809;28;20423;-49
2022/03/08 07:50:53;;;;;;;8.43;5.82;;;;;;;12.69;41.88;102291.63;5166470;28;20417;-48
2022/03/08 07:53:25;;;;;;;9.18;5.32;;;;;;;13.03;41.22;102294.09;5172910;28;20415;-50
2022/03/08 07:55:57;;;;;;;9.10;5.57;;;;;;;13.23;40.79;102284.44;5169951;28;21056;-48
2022/03/08 07:58:31;;;;;;;9.68;6.05;;;;;;;13.51;40.56;102272.31;5171446;28;20511;-50
2022/03/08 08:01:04;;;;;;;9.82;5.43;;;;;;;13.93;39.91;102285.41;5170302;28;20465;-49
2022/03/08 08:03:37;;;;;;;8.27;5.82;;;;;;;13.79;40.17;102291.97;5166595;28;20404;-47
2022/03/08 08:06:10;;;;;;;9.35;5.40;;;;;;;14.14;39.86;102307.41;5170338;28;20765;-52
2022/03/08 08:08:43;;;;;;;10.95;5.57;;;;;;;14.24;39.25;102278.19;5153369;28;20933;-47
2022/03/08 08:11:15;;;;;;;7.03;5.22;;;;;;;14.40;39.04;102317.50;5171137;28;20454;-51
2022/03/08 08:13:50;;;;;;;6.35;4.80;;;;;;;14.46;38.68;102279.75;5167002;28;20927;-49
2022/03/08 08:16:23;;;;;;;6.13;5.53;;;;;;;14.61;38.50;102283.69;5168591;28;20420;-47
2022/03/08 08:18:58;;;;;;;7.47;5.22;;;;;;;15.07;37.96;102291.88;5170038;28;20412;-50
2022/03/08 08:21:30;;;;;;;8.15;5.43;;;;;;;15.21;37.69;102281.63;5169996;28;20432;-54
2022/03/08 08:24:04;;;;;;;9.15;5.00;;;;;;;15.27;37.48;102287.34;5169835;28;20877;-51
2022/03/08 08:26:36;;;;;;;7.75;5.78;;;;;;;15.06;37.46;102277.75;5167781;28;20459;-50
2022/03/08 08:29:10;;;;;;;6.57;4.95;;;;;;;15.28;36.95;102289.88;5170942;28;20417;-49
2022/03/08 08:31:43;;;;;;;6.10;4.65;;;;;;;15.21;36.96;102286.97;5173608;28;20419;-52
2022/03/08 08:34:16;;;;;;;8.98;5.47;;;;;;;14.95;37.08;102289.38;5182298;28;20434;-49
2022/03/08 08:36:48;;;;;;;7.25;5.72;;;;;;;14.86;37.10;102284.09;5174489;28;20890;-55
2022/03/08 08:39:21;;;;;;;8.35;5.55;;;;;;;14.91;36.79;102289.81;5185857;28;20489;-54
2022/03/08 08:41:53;;;;;;;8.00;4.85;;;;;;;15.13;36.14;102286.81;5170952;28;20575;-49
2022/03/08 08:44:27;;;;;;;6.85;5.10;;;;;;;15.08;36.00;102274.94;5176253;28;20821;-48
2022/03/08 08:47:00;;;;;;;7.47;4.90;;;;;;;15.08;35.99;102275.78;5170790;28;20497;-48
2022/03/08 08:49:32;;;;;;;8.15;5.32;;;;;;;15.48;35.61;102282.63;5171956;28;20440;-48
2022/03/08 08:52:05;;;;;;;7.63;5.28;;;;;;;16.06;34.97;102281.53;5177533;28;20503;-50
2022/03/08 08:54:38;;;;;;;10.03;5.43;;;;;;;16.79;34.34;102278.72;5175303;28;20999;-48
2022/03/08 08:57:11;;;;;;;9.73;5.53;;;;;;;17.03;33.83;102275.38;5173458;28;20612;-49
2022/03/08 08:59:45;;;;;;;8.60;4.77;;;;;;;17.37;33.65;102266.53;5177502;28;20412;-50
2022/03/08 09:02:17;;;;;;;9.43;4.88;;;;;;;17.34;33.34;102253.50;5169085;28;20838;-49
2022/03/08 09:04:49;;;;;;;10.82;4.88;;;;;;;17.20;33.17;102271.81;5170079;28;20412;-51
2022/03/08 09:07:22;;;;;;;8.00;4.63;;;;;;;16.79;33.71;102257.38;5174589;28;20776;-53
2022/03/08 09:09:54;;;;;;;6.95;5.05;;;;;;;16.67;33.88;102271.94;5177713;28;23361;-53
2022/03/08 09:12:27;;;;;;;7.60;4.82;;;;;;;16.34;34.16;102266.31;5172994;28;20416;-50
2022/03/08 09:15:02;;;;;;;8.80;5.83;;;;;;;16.21;34.28;102252.53;5158971;28;20417;-55
2022/03/08 09:17:35;;;;;;;5.45;4.32;;;;;;;16.01;34.65;102263.34;5189124;28;20414;-50
2022/03/08 09:20:09;;;;;;;7.60;4.95;;;;;;;15.47;35.24;102245.53;5168652;28;20409;-54
2022/03/08 09:22:42;;;;;;;7.22;4.80;;;;;;;15.19;35.76;102262.31;5181636;28;20431;-49
2022/03/08 09:25:15;;;;;;;7.67;4.93;;;;;;;14.69;36.33;102246.59;5169931;28;20581;-52
2022/03/08 09:27:47;;;;;;;6.32;4.30;;;;;;;14.52;36.60;102255.28;5161770;28;20444;-52
2022/03/08 09:30:22;;;;;;;7.13;4.65;;;;;;;14.16;36.95;102219.63;5172927;28;20438;-49
2022/03/08 09:32:56;;;;;;;11.50;5.10;;;;;;;14.06;37.29;102240.88;5171655;28;20515;-52
2022/03/08 09:35:29;;;;;;;7.75;4.70;;;;;;;13.30;37.82;102185.63;5175861;28;20900;-50
2022/03/08 09:38:04;;;;;;;6.38;4.35;;;;;;;13.40;38.19;102238.72;5142963;28;20420;-53
2022/03/08 09:40:37;;;;;;;10.38;4.55;;;;;;;13.08;38.56;102238.84;5168384;28;20417;-48
2022/03/08 09:43:10;;;;;;;5.15;3.85;;;;;;;12.60;38.92;102221.66;5172187;28;20491;-53
2022/03/08 09:45:44;;;;;;;12.10;4.28;;;;;;;12.13;39.45;102231.75;5169692;28;20420;-55
2022/03/08 09:48:17;;;;;;;9.63;4.30;;;;;;;11.65;39.78;102231.25;5164568;28;20404;-53
2022/03/08 09:50:49;;;;;;;6.80;4.20;;;;;;;11.18;40.13;102228.75;5169129;28;20473;-49
2022/03/08 09:53:23;;;;;;;5.43;3.95;;;;;;;10.81;40.26;102228.97;5169688;28;20504;-53
2022/03/08 09:55:59;;;;;;;6.93;4.40;;;;;;;10.61;40.15;102225.16;5171395;28;20424;-49
2022/03/08 09:58:32;;;;;;;5.68;4.32;;;;;;;10.37;40.05;102221.72;5176199;28;20440;-48
2022/03/08 10:01:06;;;;;;;5.93;4.85;;;;;;;10.22;40.12;102215.78;5168830;28;20498;-55
2022/03/08 10:03:42;;;;;;;8.50;5.20;;;;;;;10.10;40.15;102217.53;5166776;28;20405;-51
2022/03/08 10:06:14;;;;;;;8.63;5.20;;;;;;;10.07;39.90;102224.84;5150313;28;20412;-55
2022/03/08 10:08:47;;;;;;;12.57;6.18;;;;;;;9.86;39.82;102206.97;5151219;28;20475;-51
2022/03/08 10:11:19;;;;;;;11.98;5.03;;;;;;;9.90;39.43;102202.28;5122500;28;20494;-51
2022/03/08 10:13:53;;;;;;;8.00;5.30;;;;;;;9.97;39.42;102198.25;5144764;28;20426;-52
2022/03/08 10:16:41;;;;;;;7.10;4.47;;;;;;;10.07;39.29;102191.34;5142672;28;20430;-53
2022/03/08 10:19:14;;;;;;;5.83;4.80;;;;;;;9.97;39.46;102192.97;5167515;28;20468;-50
2022/03/08 10:21:51;;;;;;;7.55;4.50;;;;;;;9.80;39.55;102185.47;5161151;28;20839;-50
2022/03/08 10:24:28;;;;;;;5.95;4.45;;;;;;;9.65;39.62;102167.13;5168453;28;20893;-49
2022/03/08 10:27:06;;;;;;;8.43;4.73;;;;;;;9.74;39.50;102186.75;5149670;28;20488;-51
2022/03/08 10:29:40;;;;;;;10.13;5.20;;;;;;;9.80;39.53;102180.19;5159204;28;20783;-50
2022/03/08 10:32:18;;;;;;;9.02;5.53;;;;;;;9.85;39.60;102191.25;5172705;28;20899;-51
2022/03/08 10:34:54;;;;;;;6.60;5.03;;;;;;;9.73;39.21;102171.03;5160837;28;20405;-53
2022/03/08 10:37:35;;;;;;;5.68;4.68;;;;;;;9.92;39.21;102195.97;5170006;28;20462;-52
2022/03/08 10:40:12;;;;;;;6.38;4.97;;;;;;;9.95;39.29;102184.34;5177678;28;20491;-54
2022/03/08 10:42:45;;;;;;;6.35;5.10;;;;;;;9.93;39.19;102175.69;5174252;28;20419;-50
2022/03/08 10:45:18;;;;;;;9.13;5.43;;;;;;;9.92;38.98;102155.53;5164304;28;20502;-48
2022/03/08 10:47:53;;;;;;;11.13;5.40;;;;;;;10.18;38.89;102179.16;5169045;28;20448;-51
2022/03/08 10:50:28;;;;;;;6.82;4.65;;;;;;;10.15;38.94;102186.31;5166478;28;20420;-49
2022/03/08 10:53:04;;;;;;;5.05;4.45;;;;;;;10.11;39.03;102176.97;5142565;28;20448;-52
2022/03/08 10:55:39;;;;;;;7.32;5.20;;;;;;;10.08;39.09;102174.53;5162882;28;20475;-55
2022/03/08 10:58:14;;;;;;;9.85;4.72;;;;;;;10.13;39.09;102166.31;5169270;28;20800;-49
2022/03/08 11:00:52;;;;;;;7.80;5.32;;;;;;;10.15;39.08;102152.00;5171328;28;20413;-52
2022/03/08 11:03:26;;;;;;;8.27;5.57;;;;;;;10.35;38.65;102162.94;5164444;28;20423;-52
2022/03/08 11:06:04;;;;;;;8.18;5.97;;;;;;;10.47;38.55;102156.72;5173835;28;20419;-52
2022/03/08 11:08:37;;;;;;;8.00;6.35;;;;;;;10.56;38.46;102158.66;5174180;28;20425;-49
2022/03/08 11:11:10;;;;;;;7.60;5.03;;;;;;;10.68;38.22;102156.00;5182169;28;20415;-51
2022/03/08 11:13:43;;;;;;;6.15;4.80;;;;;;;10.72;38.15;102154.84;5165783;28;20413;-53
2022/03/08 11:16:16;;;;;;;8.48;5.43;;;;;;;10.65;38.22;102157.09;5178115;28;20415;-53
2022/03/08 11:18:52;;;;;;;8.33;5.67;;;;;;;10.56;38.44;102153.38;5180781;28;20427;-51
2022/03/08 11:21:25;;;;;;;11.50;5.33;;;;;;;10.58;38.43;102154.06;5169683;28;20414;-50
2022/03/08 11:23:59;;;;;;;6.78;5.03;;;;;;;10.66;38.37;102131.53;5172038;28;20486;-49
2022/03/08 11:26:32;;;;;;;8.23;5.85;;;;;;;10.75;38.21;102130.81;5168868;28;20553;-54
2022/03/08 11:29:05;;;;;;;11.63;5.03;;;;;;;10.86;37.87;102133.44;5171274;28;20467;-51
2022/03/08 11:31:41;;;;;;;7.03;5.22;;;;;;;10.88;38.03;102155.31;5158339;28;20433;-50
2022/03/08 11:34:26;;;;;;;9.32;5.45;;;;;;;10.79;38.05;102129.59;5163686;28;20486;-48
2022/03/08 11:37:03;;;;;;;6.50;5.05;;;;;;;10.80;38.08;102133.91;5173576;28;20844;-50
2022/03/08 11:39:39;;;;;;;9.35;5.55;;;;;;;10.73;38.12;102119.50;5175216;28;20412;-52
2022/03/08 11:42:31;;;;;;;6.13;5.00;;;;;;;10.66;38.03;102119.16;5169643;28;20415;-50
2022/03/08 11:45:08;;;;;;;6.18;4.80;;;;;;;10.66;37.79;102116.50;5164785;28;20432;-59
2022/03/08 11:47:45;;;;;;;8.90;4.70;;;;;;;10.27;37.71;102051.75;5171266;28;20417;-53
2022/03/08 11:50:23;;;;;;;7.28;4.78;;;;;;;10.66;37.91;102118.31;5164562;28;20777;-48